sensor_id;sensor_type;location;lat;lon;timestamp;temperature;humidity
21627;DHT22;10975;47.872;12.972;2023-04-24T00:00:03;12.20;99.90
21627;DHT22;10975;47.872;12.972;2023-04-24T00:02:33;12.30;99.90
21627;DHT22;10975;47.872;12.972;2023-04-24T00:05:01;12.20;99.90
21627;DHT22;10975;47.872;12.972;2023-04-24T00:07:29;12.20;99.90
21627;DHT22;10975;47.872;12.972;2023-04-24T00:09:56;12.20;99.90
21627;DHT22;10975;47.872;12.972;2023-04-24T00:12:23;12.20;99.90
21627;DHT22;10975;47.872;12.972;2023-04-24T00:14:49;12.10;99.90
21627;DHT22;10975;47.872;12.972;2023-04-24T00:17:16;12.00;99.90
21627;DHT22;10975;47.872;12.972;2023-04-24T00:19:46;12.00;99.90
21627;DHT22;10975;47.872;12.972;2023-04-24T00:22:13;12.00;99.90
21627;DHT22;10975;47.872;12.972;2023-04-24T00:24:41;12.00;99.90
21627;DHT22;10975;47.872;12.972;2023-04-24T00:27:07;12.00;99.90
21627;DHT22;10975;47.872;12.972;2023-04-24T00:29:37;12.00;99.90
21627;DHT22;10975;47.872;12.972;2023-04-24T00:32:06;12.00;99.90
21627;DHT22;10975;47.872;12.972;2023-04-24T00:34:33;11.90;99.90
21627;DHT22;10975;47.872;12.972;2023-04-24T00:37:00;11.90;99.90
21627;DHT22;10975;47.872;12.972;2023-04-24T00:39:27;11.80;99.90
21627;DHT22;10975;47.872;12.972;2023-04-24T00:41:54;11.70;99.90
21627;DHT22;10975;47.872;12.972;2023-04-24T00:44:21;11.70;99.90
21627;DHT22;10975;47.872;12.972;2023-04-24T00:46:48;11.70;99.90
21627;DHT22;10975;47.872;12.972;2023-04-24T00:49:18;11.70;99.90
21627;DHT22;10975;47.872;12.972;2023-04-24T00:51:45;11.60;99.90
21627;DHT22;10975;47.872;12.972;2023-04-24T00:54:12;11.60;99.90
21627;DHT22;10975;47.872;12.972;2023-04-24T00:56:39;11.60;99.90
21627;DHT22;10975;47.872;12.972;2023-04-24T00:59:06;11.60;99.90
21627;DHT22;10975;47.872;12.972;2023-04-24T01:01:34;11.60;99.90
21627;DHT22;10975;47.872;12.972;2023-04-24T01:04:01;11.50;99.90
21627;DHT22;10975;47.872;12.972;2023-04-24T01:06:29;11.50;99.90
21627;DHT22;10975;47.872;12.972;2023-04-24T01:08:58;11.50;99.90
21627;DHT22;10975;47.872;12.972;2023-04-24T01:11:25;11.40;99.90
21627;DHT22;10975;47.872;12.972;2023-04-24T01:13:52;11.40;99.90
21627;DHT22;10975;47.872;12.972;2023-04-24T01:16:19;11.40;99.90
21627;DHT22;10975;47.872;12.972;2023-04-24T01:18:47;11.40;99.90
21627;DHT22;10975;47.872;12.972;2023-04-24T01:21:15;11.50;99.90
21627;DHT22;10975;47.872;12.972;2023-04-24T01:23:45;11.50;99.90
21627;DHT22;10975;47.872;12.972;2023-04-24T01:26:13;11.60;99.90
21627;DHT22;10975;47.872;12.972;2023-04-24T01:28:40;11.60;99.90
21627;DHT22;10975;47.872;12.972;2023-04-24T01:31:06;11.60;99.90
21627;DHT22;10975;47.872;12.972;2023-04-24T01:33:33;11.60;99.90
21627;DHT22;10975;47.872;12.972;2023-04-24T01:36:00;11.50;99.90
21627;DHT22;10975;47.872;12.972;2023-04-24T01:38:27;11.50;99.90
21627;DHT22;10975;47.872;12.972;2023-04-24T01:40:54;11.50;99.90
21627;DHT22;10975;47.872;12.972;2023-04-24T01:43:21;11.50;99.90
21627;DHT22;10975;47.872;12.972;2023-04-24T01:45:48;11.50;99.90
21627;DHT22;10975;47.872;12.972;2023-04-24T01:48:15;11.50;99.90
21627;DHT22;10975;47.872;12.972;2023-04-24T01:50:41;11.50;99.90
21627;DHT22;10975;47.872;12.972;2023-04-24T01:53:08;11.60;99.90
21627;DHT22;10975;47.872;12.972;2023-04-24T01:55:35;11.60;99.90
21627;DHT22;10975;47.872;12.972;2023-04-24T01:58:02;11.60;99.90
21627;DHT22;10975;47.872;12.972;2023-04-24T02:00:29;11.50;99.90
21627;DHT22;10975;47.872;12.972;2023-04-24T02:02:56;11.50;99.90
21627;DHT22;10975;47.872;12.972;2023-04-24T02:05:23;11.50;99.90
21627;DHT22;10975;47.872;12.972;2023-04-24T02:07:49;11.50;99.90
21627;DHT22;10975;47.872;12.972;2023-04-24T02:10:16;11.50;99.90
21627;DHT22;10975;47.872;12.972;2023-04-24T02:12:43;11.50;99.90
21627;DHT22;10975;47.872;12.972;2023-04-24T02:15:10;11.50;99.90
21627;DHT22;10975;47.872;12.972;2023-04-24T02:17:37;11.50;99.90
21627;DHT22;10975;47.872;12.972;2023-04-24T02:20:04;11.50;99.90
21627;DHT22;10975;47.872;12.972;2023-04-24T02:22:31;11.50;99.90
21627;DHT22;10975;47.872;12.972;2023-04-24T02:24:58;11.40;99.90
21627;DHT22;10975;47.872;12.972;2023-04-24T02:27:25;11.40;99.90
21627;DHT22;10975;47.872;12.972;2023-04-24T02:29:51;11.50;99.90
21627;DHT22;10975;47.872;12.972;2023-04-24T02:32:18;11.50;99.90
21627;DHT22;10975;47.872;12.972;2023-04-24T02:34:45;11.50;99.90
21627;DHT22;10975;47.872;12.972;2023-04-24T02:37:12;11.50;99.90
21627;DHT22;10975;47.872;12.972;2023-04-24T02:39:39;11.40;99.90
21627;DHT22;10975;47.872;12.972;2023-04-24T02:42:06;11.40;99.90
21627;DHT22;10975;47.872;12.972;2023-04-24T02:44:34;11.40;99.90
21627;DHT22;10975;47.872;12.972;2023-04-24T02:47:01;11.40;99.90
21627;DHT22;10975;47.872;12.972;2023-04-24T02:49:28;11.40;99.90
21627;DHT22;10975;47.872;12.972;2023-04-24T02:51:54;11.40;99.90
21627;DHT22;10975;47.872;12.972;2023-04-24T02:54:21;11.40;99.90
21627;DHT22;10975;47.872;12.972;2023-04-24T02:56:48;11.40;99.90
21627;DHT22;10975;47.872;12.972;2023-04-24T02:59:14;11.40;99.90
21627;DHT22;10975;47.872;12.972;2023-04-24T03:01:41;11.40;99.90
21627;DHT22;10975;47.872;12.972;2023-04-24T03:04:08;11.40;99.90
21627;DHT22;10975;47.872;12.972;2023-04-24T03:06:35;11.30;99.90
21627;DHT22;10975;47.872;12.972;2023-04-24T03:09:02;11.30;99.90
21627;DHT22;10975;47.872;12.972;2023-04-24T03:11:29;11.30;99.90
21627;DHT22;10975;47.872;12.972;2023-04-24T03:13:56;11.30;99.90
21627;DHT22;10975;47.872;12.972;2023-04-24T03:16:23;11.30;99.90
21627;DHT22;10975;47.872;12.972;2023-04-24T03:18:50;11.30;99.90
21627;DHT22;10975;47.872;12.972;2023-04-24T03:21:16;11.30;99.90
21627;DHT22;10975;47.872;12.972;2023-04-24T03:23:43;11.30;99.90
21627;DHT22;10975;47.872;12.972;2023-04-24T03:26:10;11.30;99.90
21627;DHT22;10975;47.872;12.972;2023-04-24T03:28:36;11.30;99.90
21627;DHT22;10975;47.872;12.972;2023-04-24T03:31:03;11.30;99.90
21627;DHT22;10975;47.872;12.972;2023-04-24T03:33:30;11.30;99.90
21627;DHT22;10975;47.872;12.972;2023-04-24T03:35:57;11.30;99.90
21627;DHT22;10975;47.872;12.972;2023-04-24T03:38:23;11.30;99.90
21627;DHT22;10975;47.872;12.972;2023-04-24T03:40:50;11.30;99.90
21627;DHT22;10975;47.872;12.972;2023-04-24T03:43:16;11.30;99.90
21627;DHT22;10975;47.872;12.972;2023-04-24T03:45:43;11.30;99.90
21627;DHT22;10975;47.872;12.972;2023-04-24T03:48:10;11.30;99.90
21627;DHT22;10975;47.872;12.972;2023-04-24T03:50:37;11.30;99.90
21627;DHT22;10975;47.872;12.972;2023-04-24T03:53:03;11.20;99.90
21627;DHT22;10975;47.872;12.972;2023-04-24T03:55:30;11.20;99.90
21627;DHT22;10975;47.872;12.972;2023-04-24T03:57:57;11.20;99.90
21627;DHT22;10975;47.872;12.972;2023-04-24T04:00:24;11.20;99.90
21627;DHT22;10975;47.872;12.972;2023-04-24T04:02:51;11.20;99.90
21627;DHT22;10975;47.872;12.972;2023-04-24T04:05:18;11.20;99.90
21627;DHT22;10975;47.872;12.972;2023-04-24T04:07:44;11.20;99.90
21627;DHT22;10975;47.872;12.972;2023-04-24T04:10:11;11.20;99.90
21627;DHT22;10975;47.872;12.972;2023-04-24T04:12:38;11.20;99.90
21627;DHT22;10975;47.872;12.972;2023-04-24T04:15:04;11.20;99.90
21627;DHT22;10975;47.872;12.972;2023-04-24T04:17:33;11.20;99.90
21627;DHT22;10975;47.872;12.972;2023-04-24T04:20:00;11.20;99.90
21627;DHT22;10975;47.872;12.972;2023-04-24T04:22:27;11.20;99.90
21627;DHT22;10975;47.872;12.972;2023-04-24T04:24:54;11.30;99.90
21627;DHT22;10975;47.872;12.972;2023-04-24T04:27:20;11.20;99.90
21627;DHT22;10975;47.872;12.972;2023-04-24T04:29:47;11.20;99.90
21627;DHT22;10975;47.872;12.972;2023-04-24T04:32:14;11.30;99.90
21627;DHT22;10975;47.872;12.972;2023-04-24T04:34:42;11.20;99.90
21627;DHT22;10975;47.872;12.972;2023-04-24T04:37:09;11.20;99.90
21627;DHT22;10975;47.872;12.972;2023-04-24T04:39:37;11.20;99.90
21627;DHT22;10975;47.872;12.972;2023-04-24T04:42:04;11.20;99.90
21627;DHT22;10975;47.872;12.972;2023-04-24T04:44:31;11.20;99.90
21627;DHT22;10975;47.872;12.972;2023-04-24T04:46:58;11.20;99.90
21627;DHT22;10975;47.872;12.972;2023-04-24T04:49:25;11.20;99.90
21627;DHT22;10975;47.872;12.972;2023-04-24T04:51:54;11.10;99.90
21627;DHT22;10975;47.872;12.972;2023-04-24T04:54:21;11.00;99.90
21627;DHT22;10975;47.872;12.972;2023-04-24T04:56:51;11.10;99.90
21627;DHT22;10975;47.872;12.972;2023-04-24T04:59:18;11.10;99.90
21627;DHT22;10975;47.872;12.972;2023-04-24T05:01:45;11.10;99.90
21627;DHT22;10975;47.872;12.972;2023-04-24T05:04:11;11.10;99.90
21627;DHT22;10975;47.872;12.972;2023-04-24T05:06:38;11.20;99.90
21627;DHT22;10975;47.872;12.972;2023-04-24T05:09:05;11.20;99.90
21627;DHT22;10975;47.872;12.972;2023-04-24T05:11:33;11.20;99.90
21627;DHT22;10975;47.872;12.972;2023-04-24T05:14:00;11.20;99.90
21627;DHT22;10975;47.872;12.972;2023-04-24T05:16:27;11.20;99.90
21627;DHT22;10975;47.872;12.972;2023-04-24T05:18:54;11.20;99.90
21627;DHT22;10975;47.872;12.972;2023-04-24T05:21:20;11.20;99.90
21627;DHT22;10975;47.872;12.972;2023-04-24T05:23:47;11.30;99.90
21627;DHT22;10975;47.872;12.972;2023-04-24T05:26:14;11.30;99.90
21627;DHT22;10975;47.872;12.972;2023-04-24T05:28:41;11.30;99.90
21627;DHT22;10975;47.872;12.972;2023-04-24T05:31:08;11.30;99.90
21627;DHT22;10975;47.872;12.972;2023-04-24T05:33:35;11.30;99.90
21627;DHT22;10975;47.872;12.972;2023-04-24T05:36:02;11.30;99.90
21627;DHT22;10975;47.872;12.972;2023-04-24T05:38:28;11.40;99.90
21627;DHT22;10975;47.872;12.972;2023-04-24T05:40:55;11.40;99.90
21627;DHT22;10975;47.872;12.972;2023-04-24T05:43:22;11.30;99.90
21627;DHT22;10975;47.872;12.972;2023-04-24T05:45:48;11.40;99.90
21627;DHT22;10975;47.872;12.972;2023-04-24T05:48:15;11.40;99.90
21627;DHT22;10975;47.872;12.972;2023-04-24T05:50:42;11.50;99.90
21627;DHT22;10975;47.872;12.972;2023-04-24T05:53:09;11.50;99.90
21627;DHT22;10975;47.872;12.972;2023-04-24T05:55:37;11.60;99.90
21627;DHT22;10975;47.872;12.972;2023-04-24T05:58:03;11.60;99.90
21627;DHT22;10975;47.872;12.972;2023-04-24T06:00:30;11.60;99.90
21627;DHT22;10975;47.872;12.972;2023-04-24T06:02:57;11.60;99.90
21627;DHT22;10975;47.872;12.972;2023-04-24T06:05:24;11.60;99.90
21627;DHT22;10975;47.872;12.972;2023-04-24T06:07:51;11.70;99.90
21627;DHT22;10975;47.872;12.972;2023-04-24T06:10:18;11.80;99.90
21627;DHT22;10975;47.872;12.972;2023-04-24T06:12:44;11.80;99.90
21627;DHT22;10975;47.872;12.972;2023-04-24T06:15:11;11.80;99.90
21627;DHT22;10975;47.872;12.972;2023-04-24T06:17:39;11.90;99.90
21627;DHT22;10975;47.872;12.972;2023-04-24T06:20:06;11.90;99.90
21627;DHT22;10975;47.872;12.972;2023-04-24T06:22:33;11.90;99.90
21627;DHT22;10975;47.872;12.972;2023-04-24T06:25:00;12.00;99.90
21627;DHT22;10975;47.872;12.972;2023-04-24T06:27:27;12.00;99.90
21627;DHT22;10975;47.872;12.972;2023-04-24T06:29:54;12.10;99.90
21627;DHT22;10975;47.872;12.972;2023-04-24T06:32:24;12.10;99.90
21627;DHT22;10975;47.872;12.972;2023-04-24T06:34:51;12.10;99.90
21627;DHT22;10975;47.872;12.972;2023-04-24T06:37:21;12.20;99.90
21627;DHT22;10975;47.872;12.972;2023-04-24T06:39:48;12.30;99.90
21627;DHT22;10975;47.872;12.972;2023-04-24T06:42:15;12.40;99.90
21627;DHT22;10975;47.872;12.972;2023-04-24T06:44:42;12.40;99.90
21627;DHT22;10975;47.872;12.972;2023-04-24T06:47:10;12.50;99.90
21627;DHT22;10975;47.872;12.972;2023-04-24T06:49:36;12.50;99.90
21627;DHT22;10975;47.872;12.972;2023-04-24T06:52:03;12.50;99.90
21627;DHT22;10975;47.872;12.972;2023-04-24T06:54:30;12.50;99.90
21627;DHT22;10975;47.872;12.972;2023-04-24T06:56:57;12.40;99.90
21627;DHT22;10975;47.872;12.972;2023-04-24T06:59:24;12.40;99.90
21627;DHT22;10975;47.872;12.972;2023-04-24T07:01:51;12.30;99.90
21627;DHT22;10975;47.872;12.972;2023-04-24T07:04:21;12.40;99.90
21627;DHT22;10975;47.872;12.972;2023-04-24T07:06:48;12.50;99.90
21627;DHT22;10975;47.872;12.972;2023-04-24T07:09:18;12.60;99.90
21627;DHT22;10975;47.872;12.972;2023-04-24T07:11:45;12.60;99.90
21627;DHT22;10975;47.872;12.972;2023-04-24T07:14:12;12.60;99.90
21627;DHT22;10975;47.872;12.972;2023-04-24T07:16:39;12.70;99.90
21627;DHT22;10975;47.872;12.972;2023-04-24T07:19:06;12.80;99.90
21627;DHT22;10975;47.872;12.972;2023-04-24T07:21:33;12.80;99.90
21627;DHT22;10975;47.872;12.972;2023-04-24T07:24:00;12.80;99.90
21627;DHT22;10975;47.872;12.972;2023-04-24T07:26:27;12.90;99.90
21627;DHT22;10975;47.872;12.972;2023-04-24T07:28:54;12.90;99.90
21627;DHT22;10975;47.872;12.972;2023-04-24T07:31:21;12.90;99.90
21627;DHT22;10975;47.872;12.972;2023-04-24T07:33:48;12.90;99.90
21627;DHT22;10975;47.872;12.972;2023-04-24T07:36:15;12.90;99.90
21627;DHT22;10975;47.872;12.972;2023-04-24T07:38:45;12.90;99.90
21627;DHT22;10975;47.872;12.972;2023-04-24T07:41:12;13.00;99.90
21627;DHT22;10975;47.872;12.972;2023-04-24T07:43:39;13.10;99.90
21627;DHT22;10975;47.872;12.972;2023-04-24T07:46:06;13.10;99.90
21627;DHT22;10975;47.872;12.972;2023-04-24T07:48:34;13.20;99.90
21627;DHT22;10975;47.872;12.972;2023-04-24T07:51:01;13.20;99.90
21627;DHT22;10975;47.872;12.972;2023-04-24T07:53:28;13.30;99.90
21627;DHT22;10975;47.872;12.972;2023-04-24T07:55:55;13.30;99.90
21627;DHT22;10975;47.872;12.972;2023-04-24T07:58:22;13.20;99.90
21627;DHT22;10975;47.872;12.972;2023-04-24T08:00:49;13.20;99.90
21627;DHT22;10975;47.872;12.972;2023-04-24T08:03:15;13.20;99.90
21627;DHT22;10975;47.872;12.972;2023-04-24T08:05:45;13.20;99.90
21627;DHT22;10975;47.872;12.972;2023-04-24T08:08:12;13.30;99.90
21627;DHT22;10975;47.872;12.972;2023-04-24T08:10:39;13.40;99.90
21627;DHT22;10975;47.872;12.972;2023-04-24T08:13:06;13.50;99.90
21627;DHT22;10975;47.872;12.972;2023-04-24T08:15:33;13.60;99.90
21627;DHT22;10975;47.872;12.972;2023-04-24T08:17:59;13.60;99.90
21627;DHT22;10975;47.872;12.972;2023-04-24T08:20:26;13.70;99.90
21627;DHT22;10975;47.872;12.972;2023-04-24T08:22:53;13.70;99.90
21627;DHT22;10975;47.872;12.972;2023-04-24T08:25:21;13.60;99.90
21627;DHT22;10975;47.872;12.972;2023-04-24T08:27:49;13.60;99.90
21627;DHT22;10975;47.872;12.972;2023-04-24T08:30:16;13.50;99.90
21627;DHT22;10975;47.872;12.972;2023-04-24T08:32:42;13.50;99.90
21627;DHT22;10975;47.872;12.972;2023-04-24T08:35:11;13.50;99.90
21627;DHT22;10975;47.872;12.972;2023-04-24T08:37:38;13.60;99.90
21627;DHT22;10975;47.872;12.972;2023-04-24T08:40:06;13.60;99.90
21627;DHT22;10975;47.872;12.972;2023-04-24T08:42:33;13.50;99.90
21627;DHT22;10975;47.872;12.972;2023-04-24T08:45:00;13.60;99.90
21627;DHT22;10975;47.872;12.972;2023-04-24T08:47:29;13.70;99.90
21627;DHT22;10975;47.872;12.972;2023-04-24T08:49:56;13.80;99.90
21627;DHT22;10975;47.872;12.972;2023-04-24T08:52:23;13.80;99.90
21627;DHT22;10975;47.872;12.972;2023-04-24T08:54:52;13.70;99.90
21627;DHT22;10975;47.872;12.972;2023-04-24T08:57:19;13.70;99.90
21627;DHT22;10975;47.872;12.972;2023-04-24T08:59:46;13.80;99.90
21627;DHT22;10975;47.872;12.972;2023-04-24T09:02:13;13.80;99.90
21627;DHT22;10975;47.872;12.972;2023-04-24T09:04:40;13.90;99.90
21627;DHT22;10975;47.872;12.972;2023-04-24T09:07:08;14.00;99.90
21627;DHT22;10975;47.872;12.972;2023-04-24T09:09:37;14.00;99.90
21627;DHT22;10975;47.872;12.972;2023-04-24T09:12:05;13.90;99.90
21627;DHT22;10975;47.872;12.972;2023-04-24T09:14:32;13.90;99.90
21627;DHT22;10975;47.872;12.972;2023-04-24T09:16:59;13.90;99.90
21627;DHT22;10975;47.872;12.972;2023-04-24T09:19:26;13.90;99.90
21627;DHT22;10975;47.872;12.972;2023-04-24T09:21:53;13.80;99.90
21627;DHT22;10975;47.872;12.972;2023-04-24T09:24:21;13.90;99.90
21627;DHT22;10975;47.872;12.972;2023-04-24T09:26:58;14.00;99.90
21627;DHT22;10975;47.872;12.972;2023-04-24T09:29:25;14.20;99.90
21627;DHT22;10975;47.872;12.972;2023-04-24T09:31:52;14.10;99.90
21627;DHT22;10975;47.872;12.972;2023-04-24T09:34:22;14.20;99.90
21627;DHT22;10975;47.872;12.972;2023-04-24T09:36:50;14.20;99.90
21627;DHT22;10975;47.872;12.972;2023-04-24T09:39:17;14.10;99.90
21627;DHT22;10975;47.872;12.972;2023-04-24T09:44:16;14.50;99.90
21627;DHT22;10975;47.872;12.972;2023-04-24T09:46:45;14.60;99.90
21627;DHT22;10975;47.872;12.972;2023-04-24T09:49:15;14.50;99.90
21627;DHT22;10975;47.872;12.972;2023-04-24T09:51:43;14.30;99.90
21627;DHT22;10975;47.872;12.972;2023-04-24T09:54:13;14.10;99.90
21627;DHT22;10975;47.872;12.972;2023-04-24T09:56:44;14.00;99.90
21627;DHT22;10975;47.872;12.972;2023-04-24T09:59:15;13.90;99.90
21627;DHT22;10975;47.872;12.972;2023-04-24T10:01:43;13.80;99.90
21627;DHT22;10975;47.872;12.972;2023-04-24T10:04:21;13.60;99.90
21627;DHT22;10975;47.872;12.972;2023-04-24T10:06:48;13.20;99.90
21627;DHT22;10975;47.872;12.972;2023-04-24T10:09:16;13.10;99.90
21627;DHT22;10975;47.872;12.972;2023-04-24T10:11:43;13.00;99.90
21627;DHT22;10975;47.872;12.972;2023-04-24T10:14:18;13.00;99.90
21627;DHT22;10975;47.872;12.972;2023-04-24T10:16:45;12.90;99.90
21627;DHT22;10975;47.872;12.972;2023-04-24T10:19:15;12.80;99.90
21627;DHT22;10975;47.872;12.972;2023-04-24T10:21:43;12.80;99.90
21627;DHT22;10975;47.872;12.972;2023-04-24T10:24:13;12.90;99.90
21627;DHT22;10975;47.872;12.972;2023-04-24T10:26:40;13.10;99.90
21627;DHT22;10975;47.872;12.972;2023-04-24T10:29:07;13.10;99.90
21627;DHT22;10975;47.872;12.972;2023-04-24T10:31:38;13.30;99.90
21627;DHT22;10975;47.872;12.972;2023-04-24T10:34:05;13.50;99.90
21627;DHT22;10975;47.872;12.972;2023-04-24T10:36:33;13.80;99.90
21627;DHT22;10975;47.872;12.972;2023-04-24T10:39:01;13.80;99.90
21627;DHT22;10975;47.872;12.972;2023-04-24T10:41:30;13.80;99.90
21627;DHT22;10975;47.872;12.972;2023-04-24T10:46:39;13.80;99.90
21627;DHT22;10975;47.872;12.972;2023-04-24T10:49:08;13.60;99.90
21627;DHT22;10975;47.872;12.972;2023-04-24T10:59:45;12.90;99.90
21627;DHT22;10975;47.872;12.972;2023-04-24T11:02:14;13.10;99.90
21627;DHT22;10975;47.872;12.972;2023-04-24T11:04:41;13.20;99.90
21627;DHT22;10975;47.872;12.972;2023-04-24T11:07:12;13.40;99.90
21627;DHT22;10975;47.872;12.972;2023-04-24T11:09:38;13.70;99.90
21627;DHT22;10975;47.872;12.972;2023-04-24T11:12:10;14.00;99.90
21627;DHT22;10975;47.872;12.972;2023-04-24T11:17:33;14.50;99.90
21627;DHT22;10975;47.872;12.972;2023-04-24T11:20:01;14.80;99.90
21627;DHT22;10975;47.872;12.972;2023-04-24T11:22:44;14.70;99.90
21627;DHT22;10975;47.872;12.972;2023-04-24T11:25:11;14.70;99.90
21627;DHT22;10975;47.872;12.972;2023-04-24T11:27:41;14.70;99.90
21627;DHT22;10975;47.872;12.972;2023-04-24T11:30:09;14.50;99.90
21627;DHT22;10975;47.872;12.972;2023-04-24T11:32:37;14.40;99.90
21627;DHT22;10975;47.872;12.972;2023-04-24T11:35:10;14.40;99.90
21627;DHT22;10975;47.872;12.972;2023-04-24T11:37:40;14.40;99.90
21627;DHT22;10975;47.872;12.972;2023-04-24T11:40:10;14.60;99.90
21627;DHT22;10975;47.872;12.972;2023-04-24T11:42:38;14.70;99.90
21627;DHT22;10975;47.872;12.972;2023-04-24T11:45:13;14.70;99.90
21627;DHT22;10975;47.872;12.972;2023-04-24T11:47:41;14.80;99.90
21627;DHT22;10975;47.872;12.972;2023-04-24T11:50:08;14.80;99.90
21627;DHT22;10975;47.872;12.972;2023-04-24T11:52:39;14.80;99.90
21627;DHT22;10975;47.872;12.972;2023-04-24T11:55:07;14.80;99.90
21627;DHT22;10975;47.872;12.972;2023-04-24T11:57:34;14.60;99.90
21627;DHT22;10975;47.872;12.972;2023-04-24T12:00:03;14.90;99.90
21627;DHT22;10975;47.872;12.972;2023-04-24T12:02:32;15.00;99.90
21627;DHT22;10975;47.872;12.972;2023-04-24T12:04:59;15.00;99.90
21627;DHT22;10975;47.872;12.972;2023-04-24T12:07:26;14.90;99.90
21627;DHT22;10975;47.872;12.972;2023-04-24T12:09:57;14.90;99.90
21627;DHT22;10975;47.872;12.972;2023-04-24T12:12:28;14.90;99.90
21627;DHT22;10975;47.872;12.972;2023-04-24T12:14:55;15.00;99.90
21627;DHT22;10975;47.872;12.972;2023-04-24T12:17:32;15.10;99.90
21627;DHT22;10975;47.872;12.972;2023-04-24T12:20:00;15.60;99.90
21627;DHT22;10975;47.872;12.972;2023-04-24T12:22:28;15.30;99.90
21627;DHT22;10975;47.872;12.972;2023-04-24T12:24:55;15.30;99.90
21627;DHT22;10975;47.872;12.972;2023-04-24T12:27:23;15.10;99.90
21627;DHT22;10975;47.872;12.972;2023-04-24T12:29:53;15.00;99.90
21627;DHT22;10975;47.872;12.972;2023-04-24T12:32:20;15.00;99.90
21627;DHT22;10975;47.872;12.972;2023-04-24T12:34:46;15.10;99.90
21627;DHT22;10975;47.872;12.972;2023-04-24T12:37:13;15.20;99.90
21627;DHT22;10975;47.872;12.972;2023-04-24T12:39:44;15.10;99.90
21627;DHT22;10975;47.872;12.972;2023-04-24T12:42:11;15.10;99.90
21627;DHT22;10975;47.872;12.972;2023-04-24T12:44:38;15.20;99.90
21627;DHT22;10975;47.872;12.972;2023-04-24T12:47:05;14.70;99.90
21627;DHT22;10975;47.872;12.972;2023-04-24T12:49:31;14.50;99.90
21627;DHT22;10975;47.872;12.972;2023-04-24T12:51:58;14.40;99.90
21627;DHT22;10975;47.872;12.972;2023-04-24T12:54:25;14.30;99.90
21627;DHT22;10975;47.872;12.972;2023-04-24T12:56:52;14.10;99.90
21627;DHT22;10975;47.872;12.972;2023-04-24T12:59:18;14.00;99.90
21627;DHT22;10975;47.872;12.972;2023-04-24T13:01:45;13.40;99.90
21627;DHT22;10975;47.872;12.972;2023-04-24T13:04:12;12.90;99.90
21627;DHT22;10975;47.872;12.972;2023-04-24T13:06:39;12.70;99.90
21627;DHT22;10975;47.872;12.972;2023-04-24T13:09:06;12.40;99.90
21627;DHT22;10975;47.872;12.972;2023-04-24T13:11:32;12.50;99.90
21627;DHT22;10975;47.872;12.972;2023-04-24T13:13:59;12.50;99.90
21627;DHT22;10975;47.872;12.972;2023-04-24T13:16:26;12.30;99.90
21627;DHT22;10975;47.872;12.972;2023-04-24T13:18:53;12.30;99.90
21627;DHT22;10975;47.872;12.972;2023-04-24T13:21:19;12.40;99.90
21627;DHT22;10975;47.872;12.972;2023-04-24T13:23:46;12.20;99.90
21627;DHT22;10975;47.872;12.972;2023-04-24T13:26:13;12.20;99.90
21627;DHT22;10975;47.872;12.972;2023-04-24T13:28:39;12.10;99.90
21627;DHT22;10975;47.872;12.972;2023-04-24T13:31:06;12.10;99.90
21627;DHT22;10975;47.872;12.972;2023-04-24T13:33:33;11.90;99.90
21627;DHT22;10975;47.872;12.972;2023-04-24T13:35:59;11.80;99.90
21627;DHT22;10975;47.872;12.972;2023-04-24T13:38:26;11.90;99.90
21627;DHT22;10975;47.872;12.972;2023-04-24T13:40:53;11.90;99.90
21627;DHT22;10975;47.872;12.972;2023-04-24T13:43:19;12.00;99.90
21627;DHT22;10975;47.872;12.972;2023-04-24T13:45:46;12.10;99.90
21627;DHT22;10975;47.872;12.972;2023-04-24T13:48:13;12.30;99.90
21627;DHT22;10975;47.872;12.972;2023-04-24T13:50:42;12.40;99.90
21627;DHT22;10975;47.872;12.972;2023-04-24T13:53:09;12.50;99.90
21627;DHT22;10975;47.872;12.972;2023-04-24T13:55:36;12.60;99.90
21627;DHT22;10975;47.872;12.972;2023-04-24T13:58:03;12.60;99.90
21627;DHT22;10975;47.872;12.972;2023-04-24T14:00:30;12.60;99.90
21627;DHT22;10975;47.872;12.972;2023-04-24T14:02:57;12.40;99.90
21627;DHT22;10975;47.872;12.972;2023-04-24T14:05:24;12.40;99.90
21627;DHT22;10975;47.872;12.972;2023-04-24T14:07:51;12.30;99.90
21627;DHT22;10975;47.872;12.972;2023-04-24T14:10:18;12.30;99.90
21627;DHT22;10975;47.872;12.972;2023-04-24T14:12:44;12.50;99.90
21627;DHT22;10975;47.872;12.972;2023-04-24T14:15:11;13.00;99.90
21627;DHT22;10975;47.872;12.972;2023-04-24T14:17:39;13.00;99.90
21627;DHT22;10975;47.872;12.972;2023-04-24T14:20:06;12.40;99.90
21627;DHT22;10975;47.872;12.972;2023-04-24T14:22:33;11.80;99.90
21627;DHT22;10975;47.872;12.972;2023-04-24T14:25:00;11.30;99.90
21627;DHT22;10975;47.872;12.972;2023-04-24T14:27:26;11.10;99.90
21627;DHT22;10975;47.872;12.972;2023-04-24T14:29:53;11.10;99.90
21627;DHT22;10975;47.872;12.972;2023-04-24T14:32:20;11.10;99.90
21627;DHT22;10975;47.872;12.972;2023-04-24T14:34:47;11.10;99.90
21627;DHT22;10975;47.872;12.972;2023-04-24T14:37:13;11.00;99.90
21627;DHT22;10975;47.872;12.972;2023-04-24T14:39:40;11.00;99.90
21627;DHT22;10975;47.872;12.972;2023-04-24T14:42:07;11.00;99.90
21627;DHT22;10975;47.872;12.972;2023-04-24T14:44:34;10.90;99.90
21627;DHT22;10975;47.872;12.972;2023-04-24T14:47:01;10.90;99.90
21627;DHT22;10975;47.872;12.972;2023-04-24T14:49:28;10.90;99.90
21627;DHT22;10975;47.872;12.972;2023-04-24T14:51:54;10.80;99.90
21627;DHT22;10975;47.872;12.972;2023-04-24T14:54:21;10.90;99.90
21627;DHT22;10975;47.872;12.972;2023-04-24T14:56:49;10.90;99.90
21627;DHT22;10975;47.872;12.972;2023-04-24T14:59:16;10.90;99.90
21627;DHT22;10975;47.872;12.972;2023-04-24T15:01:43;10.90;99.90
21627;DHT22;10975;47.872;12.972;2023-04-24T15:04:09;11.00;99.90
21627;DHT22;10975;47.872;12.972;2023-04-24T15:06:36;11.10;99.90
21627;DHT22;10975;47.872;12.972;2023-04-24T15:09:03;11.20;99.90
21627;DHT22;10975;47.872;12.972;2023-04-24T15:11:29;11.30;99.90
21627;DHT22;10975;47.872;12.972;2023-04-24T15:13:56;11.50;99.90
21627;DHT22;10975;47.872;12.972;2023-04-24T15:16:23;11.60;99.90
21627;DHT22;10975;47.872;12.972;2023-04-24T15:18:50;11.60;99.90
21627;DHT22;10975;47.872;12.972;2023-04-24T15:21:17;11.60;99.90
21627;DHT22;10975;47.872;12.972;2023-04-24T15:23:43;11.70;99.90
21627;DHT22;10975;47.872;12.972;2023-04-24T15:26:10;11.90;99.90
21627;DHT22;10975;47.872;12.972;2023-04-24T15:28:37;12.00;99.90
21627;DHT22;10975;47.872;12.972;2023-04-24T15:31:04;12.10;99.90